sensor_id;sensor_type;location;lat;lon;timestamp;pressure;altitude;pressure_sealevel;temperature;humidity
75996;BME280;64681;49.738;9.004;2023-05-29T00:01:32;99643.78;;;11.51;75.83
75996;BME280;64681;49.738;9.004;2023-05-29T00:03:58;99644.00;;;11.46;75.95
75996;BME280;64681;49.738;9.004;2023-05-29T00:06:23;99642.31;;;11.42;75.99
75996;BME280;64681;49.738;9.004;2023-05-29T00:08:49;99638.44;;;11.51;75.10
75996;BME280;64681;49.738;9.004;2023-05-29T00:11:15;99637.81;;;11.33;76.14
75996;BME280;64681;49.738;9.004;2023-05-29T00:13:40;99634.50;;;11.36;75.92
75996;BME280;64681;49.738;9.004;2023-05-29T00:16:07;99635.94;;;11.34;75.67
75996;BME280;64681;49.738;9.004;2023-05-29T00:18:35;99638.44;;;11.30;75.95
75996;BME280;64681;49.738;9.004;2023-05-29T00:21:00;99635.25;;;11.37;75.74
75996;BME280;64681;49.738;9.004;2023-05-29T00:23:26;99636.25;;;11.32;75.38
75996;BME280;64681;49.738;9.004;2023-05-29T00:25:51;99638.28;;;11.35;75.22
75996;BME280;64681;49.738;9.004;2023-05-29T00:28:16;99636.25;;;11.11;75.99
75996;BME280;64681;49.738;9.004;2023-05-29T00:30:42;99638.91;;;11.11;75.87
75996;BME280;64681;49.738;9.004;2023-05-29T00:33:07;99636.66;;;11.01;75.84
75996;BME280;64681;49.738;9.004;2023-05-29T00:35:33;99636.88;;;10.87;76.21
75996;BME280;64681;49.738;9.004;2023-05-29T00:37:59;99637.09;;;10.82;76.94
75996;BME280;64681;49.738;9.004;2023-05-29T00:40:25;99640.50;;;10.91;76.84
75996;BME280;64681;49.738;9.004;2023-05-29T00:42:50;99637.72;;;10.79;76.97
75996;BME280;64681;49.738;9.004;2023-05-29T00:45:16;99644.91;;;10.87;77.08
75996;BME280;64681;49.738;9.004;2023-05-29T00:47:42;99642.47;;;10.73;77.18
75996;BME280;64681;49.738;9.004;2023-05-29T00:50:11;99643.63;;;10.63;77.77
75996;BME280;64681;49.738;9.004;2023-05-29T00:52:40;99635.31;;;10.65;77.47
75996;BME280;64681;49.738;9.004;2023-05-29T00:55:07;99639.03;;;10.72;77.38
75996;BME280;64681;49.738;9.004;2023-05-29T00:57:34;99640.13;;;10.71;76.57
75996;BME280;64681;49.738;9.004;2023-05-29T01:00:02;99635.75;;;10.67;76.78
75996;BME280;64681;49.738;9.004;2023-05-29T01:02:31;99636.78;;;10.53;77.88
75996;BME280;64681;49.738;9.004;2023-05-29T01:04:57;99635.53;;;10.51;77.77
75996;BME280;64681;49.738;9.004;2023-05-29T01:07:22;99635.06;;;10.49;77.79
75996;BME280;64681;49.738;9.004;2023-05-29T01:09:48;99632.38;;;10.57;77.27
75996;BME280;64681;49.738;9.004;2023-05-29T01:12:31;99639.94;;;10.47;77.90
75996;BME280;64681;49.738;9.004;2023-05-29T01:15:28;99632.00;;;10.29;79.10
75996;BME280;64681;49.738;9.004;2023-05-29T01:23:06;99628.72;;;10.23;78.28
75996;BME280;64681;49.738;9.004;2023-05-29T01:28:44;99621.63;;;10.27;78.34
75996;BME280;64681;49.738;9.004;2023-05-29T01:31:14;99625.06;;;10.37;77.49
75996;BME280;64681;49.738;9.004;2023-05-29T01:33:42;99617.38;;;10.35;77.82
75996;BME280;64681;49.738;9.004;2023-05-29T01:36:08;99626.72;;;10.11;79.05
75996;BME280;64681;49.738;9.004;2023-05-29T01:38:34;99625.63;;;10.12;78.60
75996;BME280;64681;49.738;9.004;2023-05-29T01:41:01;99630.81;;;10.09;78.02
75996;BME280;64681;49.738;9.004;2023-05-29T01:43:27;99625.94;;;10.11;78.24
75996;BME280;64681;49.738;9.004;2023-05-29T01:45:53;99629.53;;;10.15;78.24
75996;BME280;64681;49.738;9.004;2023-05-29T01:48:19;99630.81;;;10.00;78.15
75996;BME280;64681;49.738;9.004;2023-05-29T01:50:45;99628.34;;;10.04;78.31
75996;BME280;64681;49.738;9.004;2023-05-29T01:53:12;99629.47;;;9.85;78.37
75996;BME280;64681;49.738;9.004;2023-05-29T01:55:38;99632.94;;;9.77;79.17
75996;BME280;64681;49.738;9.004;2023-05-29T01:58:05;99628.09;;;9.79;79.10
75996;BME280;64681;49.738;9.004;2023-05-29T02:00:32;99626.47;;;9.87;77.66
75996;BME280;64681;49.738;9.004;2023-05-29T02:02:58;99635.13;;;9.84;77.95
75996;BME280;64681;49.738;9.004;2023-05-29T02:05:23;99626.69;;;9.73;78.57
75996;BME280;64681;49.738;9.004;2023-05-29T02:07:49;99633.88;;;9.72;78.77
75996;BME280;64681;49.738;9.004;2023-05-29T02:10:14;99625.13;;;9.54;78.89
75996;BME280;64681;49.738;9.004;2023-05-29T02:12:40;99622.78;;;9.61;78.68
75996;BME280;64681;49.738;9.004;2023-05-29T02:15:06;99620.88;;;9.62;78.85
75996;BME280;64681;49.738;9.004;2023-05-29T02:17:31;99619.47;;;9.64;78.72
75996;BME280;64681;49.738;9.004;2023-05-29T02:19:57;99612.94;;;9.44;79.48
75996;BME280;64681;49.738;9.004;2023-05-29T02:22:22;99619.81;;;9.37;79.62
75996;BME280;64681;49.738;9.004;2023-05-29T02:24:47;99620.47;;;9.33;79.05
75996;BME280;64681;49.738;9.004;2023-05-29T02:27:13;99617.47;;;9.26;79.29
75996;BME280;64681;49.738;9.004;2023-05-29T02:29:38;99622.03;;;9.34;79.32
75996;BME280;64681;49.738;9.004;2023-05-29T02:32:04;99629.41;;;9.29;79.00
75996;BME280;64681;49.738;9.004;2023-05-29T02:34:30;99629.41;;;9.29;79.19
75996;BME280;64681;49.738;9.004;2023-05-29T02:36:55;99633.63;;;9.39;78.78
75996;BME280;64681;49.738;9.004;2023-05-29T02:39:21;99629.22;;;9.43;78.35
75996;BME280;64681;49.738;9.004;2023-05-29T02:41:46;99626.56;;;9.34;78.75
75996;BME280;64681;49.738;9.004;2023-05-29T02:44:12;99622.50;;;9.28;78.68
75996;BME280;64681;49.738;9.004;2023-05-29T02:46:37;99627.03;;;9.27;78.67
75996;BME280;64681;49.738;9.004;2023-05-29T02:49:02;99616.06;;;9.29;78.11
75996;BME280;64681;49.738;9.004;2023-05-29T02:51:28;99618.41;;;9.13;78.88
75996;BME280;64681;49.738;9.004;2023-05-29T02:53:53;99631.13;;;9.07;79.56
75996;BME280;64681;49.738;9.004;2023-05-29T02:56:20;99619.97;;;9.14;79.14
75996;BME280;64681;49.738;9.004;2023-05-29T02:58:50;99614.97;;;9.21;78.64
75996;BME280;64681;49.738;9.004;2023-05-29T03:01:15;99610.56;;;9.08;79.04
75996;BME280;64681;49.738;9.004;2023-05-29T03:03:41;99617.97;;;9.11;79.23
75996;BME280;64681;49.738;9.004;2023-05-29T03:06:06;99611.53;;;9.21;78.59
75996;BME280;64681;49.738;9.004;2023-05-29T03:08:31;99617.78;;;8.98;79.99
75996;BME280;64681;49.738;9.004;2023-05-29T03:10:58;99618.25;;;8.92;80.34
75996;BME280;64681;49.738;9.004;2023-05-29T03:13:24;99623.25;;;8.93;79.61
75996;BME280;64681;49.738;9.004;2023-05-29T03:15:49;99623.88;;;8.90;79.70
75996;BME280;64681;49.738;9.004;2023-05-29T03:18:16;99630.00;;;8.91;79.36
75996;BME280;64681;49.738;9.004;2023-05-29T03:20:41;99631.41;;;8.88;79.23
75996;BME280;64681;49.738;9.004;2023-05-29T03:23:07;99629.63;;;8.75;80.50
75996;BME280;64681;49.738;9.004;2023-05-29T03:25:32;99629.63;;;8.75;80.64
75996;BME280;64681;49.738;9.004;2023-05-29T03:27:57;99628.91;;;8.92;79.57
75996;BME280;64681;49.738;9.004;2023-05-29T03:30:23;99631.41;;;8.97;79.30
75996;BME280;64681;49.738;9.004;2023-05-29T03:32:48;99632.97;;;9.07;78.78
75996;BME280;64681;49.738;9.004;2023-05-29T03:35:14;99636.13;;;9.09;78.75
75996;BME280;64681;49.738;9.004;2023-05-29T03:37:39;99638.34;;;9.15;78.57
75996;BME280;64681;49.738;9.004;2023-05-29T03:40:05;99649.13;;;9.01;79.31
75996;BME280;64681;49.738;9.004;2023-05-29T03:42:30;99645.97;;;8.91;79.45
75996;BME280;64681;49.738;9.004;2023-05-29T03:44:59;99640.81;;;9.03;79.27
75996;BME280;64681;49.738;9.004;2023-05-29T03:47:25;99637.22;;;9.08;78.88
75996;BME280;64681;49.738;9.004;2023-05-29T03:49:50;99641.00;;;9.15;78.64
75996;BME280;64681;49.738;9.004;2023-05-29T03:52:16;99636.91;;;9.18;78.54
75996;BME280;64681;49.738;9.004;2023-05-29T03:54:42;99633.94;;;9.19;78.52
75996;BME280;64681;49.738;9.004;2023-05-29T03:57:07;99636.44;;;9.07;79.26
75996;BME280;64681;49.738;9.004;2023-05-29T03:59:34;99639.91;;;9.25;78.61
75996;BME280;64681;49.738;9.004;2023-05-29T04:01:59;99645.84;;;9.40;78.66
75996;BME280;64681;49.738;9.004;2023-05-29T04:04:24;99647.09;;;9.42;78.58
75996;BME280;64681;49.738;9.004;2023-05-29T04:06:50;99655.41;;;9.49;78.00
75996;BME280;64681;49.738;9.004;2023-05-29T04:09:15;99671.69;;;9.57;77.96
75996;BME280;64681;49.738;9.004;2023-05-29T04:11:41;99680.50;;;9.57;77.22
75996;BME280;64681;49.738;9.004;2023-05-29T04:14:09;99691.78;;;9.45;77.70
75996;BME280;64681;49.738;9.004;2023-05-29T04:16:35;99680.19;;;9.50;77.78
75996;BME280;64681;49.738;9.004;2023-05-29T04:19:00;99686.13;;;9.56;77.47
75996;BME280;64681;49.738;9.004;2023-05-29T04:21:26;99682.03;;;9.76;76.87
75996;BME280;64681;49.738;9.004;2023-05-29T04:23:52;99684.53;;;9.81;77.04
75996;BME280;64681;49.738;9.004;2023-05-29T04:26:17;99688.00;;;9.81;76.58
75996;BME280;64681;49.738;9.004;2023-05-29T04:28:45;99688.56;;;10.13;75.78
75996;BME280;64681;49.738;9.004;2023-05-29T04:31:11;99690.22;;;10.36;75.66
75996;BME280;64681;49.738;9.004;2023-05-29T04:33:39;99698.78;;;10.59;75.19
75996;BME280;64681;49.738;9.004;2023-05-29T04:36:05;99695.19;;;10.85;74.33
75996;BME280;64681;49.738;9.004;2023-05-29T04:38:30;99697.91;;;11.06;73.26
75996;BME280;64681;49.738;9.004;2023-05-29T04:40:57;99702.91;;;11.37;71.17
75996;BME280;64681;49.738;9.004;2023-05-29T04:43:24;99709.28;;;11.66;69.48
75996;BME280;64681;49.738;9.004;2023-05-29T04:45:54;99715.84;;;11.69;69.46
75996;BME280;64681;49.738;9.004;2023-05-29T04:48:20;99725.31;;;11.66;69.85
75996;BME280;64681;49.738;9.004;2023-05-29T04:50:45;99730.50;;;11.84;69.31
75996;BME280;64681;49.738;9.004;2023-05-29T04:53:11;99733.56;;;11.95;68.70
75996;BME280;64681;49.738;9.004;2023-05-29T04:55:36;99728.19;;;12.16;68.18
75996;BME280;64681;49.738;9.004;2023-05-29T04:58:02;99736.56;;;12.27;68.31
75996;BME280;64681;49.738;9.004;2023-05-29T05:00:28;99735.16;;;12.42;68.13
75996;BME280;64681;49.738;9.004;2023-05-29T05:02:53;99731.38;;;12.55;67.70
75996;BME280;64681;49.738;9.004;2023-05-29T05:05:19;99739.22;;;12.73;66.98
75996;BME280;64681;49.738;9.004;2023-05-29T05:07:45;99735.41;;;12.98;66.09
75996;BME280;64681;49.738;9.004;2023-05-29T05:10:11;99738.72;;;13.33;65.76
75996;BME280;64681;49.738;9.004;2023-05-29T05:12:37;99736.09;;;13.61;65.00
75996;BME280;64681;49.738;9.004;2023-05-29T05:15:02;99748.25;;;13.71;62.89
75996;BME280;64681;49.738;9.004;2023-05-29T05:17:28;99749.25;;;13.79;61.84
75996;BME280;64681;49.738;9.004;2023-05-29T05:19:53;99741.34;;;14.14;61.79
75996;BME280;64681;49.738;9.004;2023-05-29T05:22:19;99738.63;;;14.59;61.01
75996;BME280;64681;49.738;9.004;2023-05-29T05:24:45;99742.03;;;15.07;59.88
75996;BME280;64681;49.738;9.004;2023-05-29T05:27:10;99742.09;;;15.46;59.11
75996;BME280;64681;49.738;9.004;2023-05-29T05:29:36;99744.66;;;15.98;57.53
75996;BME280;64681;49.738;9.004;2023-05-29T05:32:01;99737.44;;;16.02;55.56
75996;BME280;64681;49.738;9.004;2023-05-29T05:34:26;99740.03;;;16.41;55.68
75996;BME280;64681;49.738;9.004;2023-05-29T05:36:52;99736.41;;;17.03;53.37
75996;BME280;64681;49.738;9.004;2023-05-29T05:39:17;99733.69;;;17.34;52.63
75996;BME280;64681;49.738;9.004;2023-05-29T05:41:43;99736.47;;;17.71;51.86
75996;BME280;64681;49.738;9.004;2023-05-29T05:44:08;99735.03;;;18.15;52.11
75996;BME280;64681;49.738;9.004;2023-05-29T05:46:33;99738.75;;;18.45;51.62
75996;BME280;64681;49.738;9.004;2023-05-29T05:48:59;99733.75;;;18.99;50.86
75996;BME280;64681;49.738;9.004;2023-05-29T05:51:26;99732.41;;;19.41;47.84
75996;BME280;64681;49.738;9.004;2023-05-29T05:53:52;99740.88;;;19.29;46.94
75996;BME280;64681;49.738;9.004;2023-05-29T05:56:17;99742.66;;;19.91;47.06
75996;BME280;64681;49.738;9.004;2023-05-29T05:58:43;99750.09;;;20.78;44.28
75996;BME280;64681;49.738;9.004;2023-05-29T06:01:08;99761.22;;;21.30;43.08
75996;BME280;64681;49.738;9.004;2023-05-29T06:03:34;99751.69;;;21.93;42.41
75996;BME280;64681;49.738;9.004;2023-05-29T06:06:00;99753.81;;;22.72;40.43
75996;BME280;64681;49.738;9.004;2023-05-29T06:08:26;99758.88;;;23.50;38.40
75996;BME280;64681;49.738;9.004;2023-05-29T06:10:52;99760.13;;;24.55;37.08
75996;BME280;64681;49.738;9.004;2023-05-29T06:13:17;99763.28;;;25.62;35.65
75996;BME280;64681;49.738;9.004;2023-05-29T06:15:43;99761.63;;;27.13;33.89
75996;BME280;64681;49.738;9.004;2023-05-29T06:18:09;99756.63;;;28.31;31.66
75996;BME280;64681;49.738;9.004;2023-05-29T06:20:35;99769.16;;;29.78;28.97
75996;BME280;64681;49.738;9.004;2023-05-29T06:23:01;99770.78;;;30.67;27.58
75996;BME280;64681;49.738;9.004;2023-05-29T06:25:27;99766.31;;;31.77;26.58
75996;BME280;64681;49.738;9.004;2023-05-29T06:27:59;99765.53;;;32.83;24.98
75996;BME280;64681;49.738;9.004;2023-05-29T06:30:25;99768.63;;;33.60;23.89
75996;BME280;64681;49.738;9.004;2023-05-29T06:32:51;99768.44;;;34.55;22.03
75996;BME280;64681;49.738;9.004;2023-05-29T06:35:16;99768.19;;;34.80;22.00
75996;BME280;64681;49.738;9.004;2023-05-29T06:37:41;99770.75;;;34.21;22.84
75996;BME280;64681;49.738;9.004;2023-05-29T06:40:07;99771.56;;;34.43;22.35
75996;BME280;64681;49.738;9.004;2023-05-29T06:42:33;99761.59;;;34.77;22.78
75996;BME280;64681;49.738;9.004;2023-05-29T06:44:58;99767.06;;;35.50;21.40
75996;BME280;64681;49.738;9.004;2023-05-29T06:47:24;99769.84;;;35.88;21.47
75996;BME280;64681;49.738;9.004;2023-05-29T06:49:49;99761.06;;;35.58;21.42
75996;BME280;64681;49.738;9.004;2023-05-29T06:52:15;99767.56;;;36.30;20.94
75996;BME280;64681;49.738;9.004;2023-05-29T06:54:40;99772.50;;;35.07;21.73
75996;BME280;64681;49.738;9.004;2023-05-29T06:57:06;99773.75;;;35.64;21.43
75996;BME280;64681;49.738;9.004;2023-05-29T06:59:32;99760.88;;;36.82;20.37
75996;BME280;64681;49.738;9.004;2023-05-29T07:01:58;99766.25;;;36.20;20.92
75996;BME280;64681;49.738;9.004;2023-05-29T07:04:23;99772.84;;;36.28;20.43
75996;BME280;64681;49.738;9.004;2023-05-29T07:06:48;99768.56;;;37.16;20.31
75996;BME280;64681;49.738;9.004;2023-05-29T07:09:14;99776.28;;;38.20;19.66
75996;BME280;64681;49.738;9.004;2023-05-29T07:11:39;99781.44;;;37.70;19.93
75996;BME280;64681;49.738;9.004;2023-05-29T07:14:05;99775.03;;;38.68;19.69
75996;BME280;64681;49.738;9.004;2023-05-29T07:16:31;99786.47;;;39.73;18.80
75996;BME280;64681;49.738;9.004;2023-05-29T07:18:57;99783.69;;;39.67;18.14
75996;BME280;64681;49.738;9.004;2023-05-29T07:21:22;99774.19;;;40.83;18.16
75996;BME280;64681;49.738;9.004;2023-05-29T07:23:48;99778.88;;;40.75;17.20
75996;BME280;64681;49.738;9.004;2023-05-29T07:26:13;99779.09;;;39.95;17.45
75996;BME280;64681;49.738;9.004;2023-05-29T07:28:39;99770.44;;;39.73;18.10
75996;BME280;64681;49.738;9.004;2023-05-29T07:31:04;99770.47;;;39.43;17.88
75996;BME280;64681;49.738;9.004;2023-05-29T07:33:30;99772.66;;;38.89;18.45
75996;BME280;64681;49.738;9.004;2023-05-29T07:35:56;99778.66;;;38.99;19.80
75996;BME280;64681;49.738;9.004;2023-05-29T07:38:21;99780.03;;;39.17;20.78
75996;BME280;64681;49.738;9.004;2023-05-29T07:40:47;99783.50;;;39.35;19.82
75996;BME280;64681;49.738;9.004;2023-05-29T07:43:12;99779.25;;;38.86;19.32
75996;BME280;64681;49.738;9.004;2023-05-29T07:45:37;99780.16;;;39.36;18.22
75996;BME280;64681;49.738;9.004;2023-05-29T07:48:03;99778.22;;;40.05;16.95
75996;BME280;64681;49.738;9.004;2023-05-29T07:50:28;99771.69;;;39.97;17.96
75996;BME280;64681;49.738;9.004;2023-05-29T07:52:54;99772.91;;;40.27;17.07
75996;BME280;64681;49.738;9.004;2023-05-29T07:55:21;99762.19;;;40.69;17.41
75996;BME280;64681;49.738;9.004;2023-05-29T07:57:47;99759.31;;;41.53;16.46
75996;BME280;64681;49.738;9.004;2023-05-29T08:00:14;99768.28;;;42.05;16.11
75996;BME280;64681;49.738;9.004;2023-05-29T08:02:40;99765.09;;;42.36;16.78
75996;BME280;64681;49.738;9.004;2023-05-29T08:05:08;99755.13;;;42.48;15.42
75996;BME280;64681;49.738;9.004;2023-05-29T08:07:35;99766.09;;;42.60;14.97
75996;BME280;64681;49.738;9.004;2023-05-29T08:10:00;99756.28;;;42.05;14.87
75996;BME280;64681;49.738;9.004;2023-05-29T08:12:26;99764.22;;;41.01;15.46
75996;BME280;64681;49.738;9.004;2023-05-29T08:14:51;99765.53;;;39.24;18.45
75996;BME280;64681;49.738;9.004;2023-05-29T08:17:17;99768.59;;;40.45;15.67
75996;BME280;64681;49.738;9.004;2023-05-29T08:19:42;99759.22;;;40.61;16.09
75996;BME280;64681;49.738;9.004;2023-05-29T08:22:11;99764.44;;;40.71;16.21
75996;BME280;64681;49.738;9.004;2023-05-29T08:24:37;99760.75;;;38.83;15.95
75996;BME280;64681;49.738;9.004;2023-05-29T08:27:02;99755.13;;;37.20;17.51
75996;BME280;64681;49.738;9.004;2023-05-29T08:29:28;99755.63;;;37.52;17.57
75996;BME280;64681;49.738;9.004;2023-05-29T08:31:53;99754.06;;;37.74;17.18
75996;BME280;64681;49.738;9.004;2023-05-29T08:34:19;99747.00;;;37.62;16.56
75996;BME280;64681;49.738;9.004;2023-05-29T08:36:44;99743.75;;;37.58;16.78
75996;BME280;64681;49.738;9.004;2023-05-29T08:39:10;99748.06;;;38.29;16.30
75996;BME280;64681;49.738;9.004;2023-05-29T08:42:07;99749.19;;;36.55;18.42
75996;BME280;64681;49.738;9.004;2023-05-29T08:44:33;99742.97;;;37.12;17.16
75996;BME280;64681;49.738;9.004;2023-05-29T08:47:06;99751.81;;;36.16;18.30
75996;BME280;64681;49.738;9.004;2023-05-29T08:49:40;99745.25;;;37.02;17.55
75996;BME280;64681;49.738;9.004;2023-05-29T08:52:18;99756.13;;;37.85;17.12
75996;BME280;64681;49.738;9.004;2023-05-29T08:54:44;99753.28;;;34.56;19.62
75996;BME280;64681;49.738;9.004;2023-05-29T08:57:11;99756.41;;;33.22;20.29
75996;BME280;64681;49.738;9.004;2023-05-29T08:59:40;99751.66;;;33.37;20.56
75996;BME280;64681;49.738;9.004;2023-05-29T09:02:07;99753.34;;;33.20;19.87
75996;BME280;64681;49.738;9.004;2023-05-29T09:04:32;99756.88;;;33.20;20.51
75996;BME280;64681;49.738;9.004;2023-05-29T09:06:58;99752.22;;;33.41;20.94
75996;BME280;64681;49.738;9.004;2023-05-29T09:09:25;99751.53;;;34.80;19.63
75996;BME280;64681;49.738;9.004;2023-05-29T09:11:52;99757.44;;;35.46;19.58
75996;BME280;64681;49.738;9.004;2023-05-29T09:14:39;99748.69;;;33.41;20.68
75996;BME280;64681;49.738;9.004;2023-05-29T09:17:06;99750.88;;;34.02;19.94
75996;BME280;64681;49.738;9.004;2023-05-29T09:19:36;99753.66;;;32.19;22.15
75996;BME280;64681;49.738;9.004;2023-05-29T09:22:12;99745.16;;;33.25;20.38
75996;BME280;64681;49.738;9.004;2023-05-29T09:24:42;99747.91;;;33.10;21.14
75996;BME280;64681;49.738;9.004;2023-05-29T09:27:09;99740.41;;;33.41;20.23
75996;BME280;64681;49.738;9.004;2023-05-29T09:29:42;99738.53;;;33.53;19.86
75996;BME280;64681;49.738;9.004;2023-05-29T09:32:11;99752.81;;;32.03;21.86
75996;BME280;64681;49.738;9.004;2023-05-29T09:34:37;99752.53;;;30.97;22.78
75996;BME280;64681;49.738;9.004;2023-05-29T09:37:08;99740.59;;;29.53;23.81
75996;BME280;64681;49.738;9.004;2023-05-29T09:39:48;99744.44;;;28.89;25.80
75996;BME280;64681;49.738;9.004;2023-05-29T09:42:16;99746.72;;;27.56;27.18
75996;BME280;64681;49.738;9.004;2023-05-29T09:44:44;99744.78;;;27.40;27.53
75996;BME280;64681;49.738;9.004;2023-05-29T09:47:14;99749.03;;;26.69;27.55
75996;BME280;64681;49.738;9.004;2023-05-29T09:49:44;99756.06;;;25.51;31.01
75996;BME280;64681;49.738;9.004;2023-05-29T09:52:12;99752.53;;;25.10;31.34
75996;BME280;64681;49.738;9.004;2023-05-29T09:54:44;99741.16;;;25.72;29.90
75996;BME280;64681;49.738;9.004;2023-05-29T09:57:13;99736.78;;;25.38;29.66
75996;BME280;64681;49.738;9.004;2023-05-29T09:59:41;99738.63;;;25.82;32.05
75996;BME280;64681;49.738;9.004;2023-05-29T10:02:06;99734.94;;;25.52;30.32
75996;BME280;64681;49.738;9.004;2023-05-29T10:04:35;99739.22;;;26.06;29.99
75996;BME280;64681;49.738;9.004;2023-05-29T10:07:17;99735.25;;;26.11;29.50
75996;BME280;64681;49.738;9.004;2023-05-29T10:09:49;99726.94;;;26.14;29.23
75996;BME280;64681;49.738;9.004;2023-05-29T10:12:20;99730.41;;;25.82;28.75
75996;BME280;64681;49.738;9.004;2023-05-29T10:14:49;99725.09;;;25.91;29.21
75996;BME280;64681;49.738;9.004;2023-05-29T10:17:23;99719.78;;;25.84;29.26
75996;BME280;64681;49.738;9.004;2023-05-29T10:19:51;99724.69;;;25.92;29.68
75996;BME280;64681;49.738;9.004;2023-05-29T10:22:20;99723.66;;;26.03;28.68
75996;BME280;64681;49.738;9.004;2023-05-29T10:24:48;99718.41;;;25.75;29.80
75996;BME280;64681;49.738;9.004;2023-05-29T10:27:15;99716.81;;;25.78;29.15
75996;BME280;64681;49.738;9.004;2023-05-29T10:30:04;99723.47;;;25.77;28.80
75996;BME280;64681;49.738;9.004;2023-05-29T10:32:42;99719.75;;;25.51;28.78
75996;BME280;64681;49.738;9.004;2023-05-29T10:35:19;99714.38;;;25.64;27.70
75996;BME280;64681;49.738;9.004;2023-05-29T10:37:56;99726.31;;;25.53;29.93
75996;BME280;64681;49.738;9.004;2023-05-29T10:40:24;99724.69;;;25.56;28.22
75996;BME280;64681;49.738;9.004;2023-05-29T10:42:51;99714.06;;;25.01;29.17
75996;BME280;64681;49.738;9.004;2023-05-29T10:53:06;99708.09;;;25.47;28.83
75996;BME280;64681;49.738;9.004;2023-05-29T10:55:35;99715.38;;;25.33;28.89
75996;BME280;64681;49.738;9.004;2023-05-29T10:58:08;99721.72;;;24.90;30.29
75996;BME280;64681;49.738;9.004;2023-05-29T11:00:40;99724.16;;;25.44;28.71
75996;BME280;64681;49.738;9.004;2023-05-29T11:03:09;99715.59;;;25.22;28.98
75996;BME280;64681;49.738;9.004;2023-05-29T11:05:59;99719.38;;;25.28;28.47
75996;BME280;64681;49.738;9.004;2023-05-29T11:11:13;99709.16;;;25.69;27.98
75996;BME280;64681;49.738;9.004;2023-05-29T11:13:39;99711.31;;;25.62;27.69
75996;BME280;64681;49.738;9.004;2023-05-29T11:18:52;99710.97;;;25.39;29.14
75996;BME280;64681;49.738;9.004;2023-05-29T11:24:26;99713.16;;;25.28;29.05
75996;BME280;64681;49.738;9.004;2023-05-29T11:26:53;99709.78;;;25.20;28.72
75996;BME280;64681;49.738;9.004;2023-05-29T11:29:27;99707.88;;;25.37;28.09
75996;BME280;64681;49.738;9.004;2023-05-29T11:32:02;99704.38;;;25.37;28.93
75996;BME280;64681;49.738;9.004;2023-05-29T11:34:29;99702.38;;;25.94;27.88
75996;BME280;64681;49.738;9.004;2023-05-29T11:36:57;99711.25;;;25.25;29.63
75996;BME280;64681;49.738;9.004;2023-05-29T11:39:23;99718.44;;;24.51;29.46
75996;BME280;64681;49.738;9.004;2023-05-29T11:41:52;99707.41;;;24.82;30.56
75996;BME280;64681;49.738;9.004;2023-05-29T11:44:18;99697.25;;;24.83;30.21
75996;BME280;64681;49.738;9.004;2023-05-29T11:46:44;99699.56;;;24.84;29.21
75996;BME280;64681;49.738;9.004;2023-05-29T11:49:10;99702.19;;;25.48;28.43
75996;BME280;64681;49.738;9.004;2023-05-29T11:51:35;99693.50;;;25.33;27.71
75996;BME280;64681;49.738;9.004;2023-05-29T11:54:02;99704.59;;;25.46;28.80
75996;BME280;64681;49.738;9.004;2023-05-29T11:56:29;99690.38;;;25.71;28.20
75996;BME280;64681;49.738;9.004;2023-05-29T11:58:57;99691.75;;;25.80;27.60
75996;BME280;64681;49.738;9.004;2023-05-29T12:01:25;99690.13;;;25.82;28.07
75996;BME280;64681;49.738;9.004;2023-05-29T12:03:51;99701.13;;;25.62;28.61
75996;BME280;64681;49.738;9.004;2023-05-29T12:06:31;99702.22;;;25.28;28.54
75996;BME280;64681;49.738;9.004;2023-05-29T12:08:57;99690.50;;;25.48;28.60
75996;BME280;64681;49.738;9.004;2023-05-29T12:11:25;99699.09;;;24.65;30.01
75996;BME280;64681;49.738;9.004;2023-05-29T12:13:59;99694.09;;;25.24;28.34
75996;BME280;64681;49.738;9.004;2023-05-29T12:16:30;99685.41;;;24.89;30.35
75996;BME280;64681;49.738;9.004;2023-05-29T12:18:57;99700.75;;;25.43;28.81
75996;BME280;64681;49.738;9.004;2023-05-29T12:21:23;99688.88;;;25.30;28.76
75996;BME280;64681;49.738;9.004;2023-05-29T12:23:53;99694.63;;;25.36;29.41
75996;BME280;64681;49.738;9.004;2023-05-29T12:26:22;99689.47;;;25.41;28.29
75996;BME280;64681;49.738;9.004;2023-05-29T12:28:50;99686.72;;;25.41;28.58
75996;BME280;64681;49.738;9.004;2023-05-29T12:31:29;99685.13;;;25.44;28.41
75996;BME280;64681;49.738;9.004;2023-05-29T12:34:06;99667.25;;;25.19;28.57
75996;BME280;64681;49.738;9.004;2023-05-29T12:36:32;99678.91;;;25.03;31.20
75996;BME280;64681;49.738;9.004;2023-05-29T12:38:58;99681.03;;;25.52;30.01
75996;BME280;64681;49.738;9.004;2023-05-29T12:41:25;99676.44;;;25.66;28.33
75996;BME280;64681;49.738;9.004;2023-05-29T12:43:53;99696.09;;;25.60;28.86
75996;BME280;64681;49.738;9.004;2023-05-29T12:46:20;99692.81;;;25.49;27.76
75996;BME280;64681;49.738;9.004;2023-05-29T12:48:45;99682.84;;;25.59;27.05
75996;BME280;64681;49.738;9.004;2023-05-29T12:51:11;99682.09;;;25.38;27.88
75996;BME280;64681;49.738;9.004;2023-05-29T12:53:36;99694.22;;;25.74;27.81
75996;BME280;64681;49.738;9.004;2023-05-29T12:56:02;99702.31;;;25.61;27.25
75996;BME280;64681;49.738;9.004;2023-05-29T12:58:27;99674.56;;;25.63;26.51
75996;BME280;64681;49.738;9.004;2023-05-29T13:00:53;99670.00;;;26.09;26.13
75996;BME280;64681;49.738;9.004;2023-05-29T13:03:21;99663.13;;;25.84;27.08
75996;BME280;64681;49.738;9.004;2023-05-29T13:05:51;99666.88;;;25.90;27.39
75996;BME280;64681;49.738;9.004;2023-05-29T13:08:16;99659.44;;;25.91;27.37
75996;BME280;64681;49.738;9.004;2023-05-29T13:10:43;99668.75;;;25.60;27.83
75996;BME280;64681;49.738;9.004;2023-05-29T13:13:09;99671.84;;;26.12;28.08
75996;BME280;64681;49.738;9.004;2023-05-29T13:15:35;99667.66;;;26.07;27.15
75996;BME280;64681;49.738;9.004;2023-05-29T13:18:01;99660.63;;;26.06;27.07
75996;BME280;64681;49.738;9.004;2023-05-29T13:20:26;99662.59;;;26.06;27.31
75996;BME280;64681;49.738;9.004;2023-05-29T13:22:52;99662.09;;;26.11;28.24
75996;BME280;64681;49.738;9.004;2023-05-29T13:25:19;99655.31;;;25.50;27.43
75996;BME280;64681;49.738;9.004;2023-05-29T13:27:48;99660.22;;;25.91;27.33